Alkin Kalkavan — TCOL6 — position and weather

sailwx.info

Track history (hours):
 
Tides and Currents Weather Stations Pressure Air Temp Water Temp Dewpoint Dewpoint Depression Visibility Wind Speed Wind Dir Waves Ship Positions

Alkin Kalkavan

Last reported at 2014-Sep-23 04:33 UTC. Time now 2014-Sep-24 02:29 UTC.
Position N 40°39' E 028°36'.

Length 148 m; draft 7.1 m.

Type: Ship (hazmat cat A). MMSI: 271000905.

Date/timePositionNaut miles runAvg speedWind from/ knotsBaromVisibWave heightAir tempDewpointWater temp
2014-Sep-23 04:33N 40°39' E 028°36'1414.2
2014-Sep-23 03:33N 40°41' E 028°54'1413.8
2014-Sep-23 02:33N 40°43' E 029°12'1312.5
2014-Sep-23 01:29N 40°45' E 029°30'9 9.8
2014-Sep-23 00:33N 40°46' E 029°42'1 0.1
2014-Sep-22 08:33N 40°46' E 029°41'1413.8
2014-Sep-22 07:32N 40°44' E 029°23'1212.4
2014-Sep-22 06:33N 40°48' E 029°07'4 3.6
2014-Sep-22 05:32N 40°49' E 029°03'1 0.6
2014-Sep-22 04:33N 40°49' E 029°04'1 0.8
2014-Sep-22 03:31N 40°48' E 029°04'1 0.6
2014-Sep-22 02:33N 40°48' E 029°04'1 0.7
2014-Sep-22 01:33N 40°47' E 029°04'1 0.6
2014-Sep-22 00:33N 40°46' E 029°04'1 0.6
2014-Sep-21 23:33N 40°46' E 029°04'0 0.4
2014-Sep-21 22:33N 40°45' E 029°03'9 9.5
2014-Sep-21 21:33N 40°47' E 028°51'1310.6
2014-Sep-21 20:20N 40°58' E 028°41'0 0.0
2014-Sep-21 15:28N 40°58' E 028°41'0 0.0
2014-Sep-21 13:21N 40°58' E 028°41'0 0.0
2014-Sep-21 12:21N 40°58' E 028°41'0 0.0
2014-Sep-21 11:33N 40°58' E 028°41'2 0.3
2014-Sep-21 03:24N 40°56' E 028°40'2412.8
2014-Sep-21 01:31N 40°32' E 028°45'1313.6
2014-Sep-21 00:33N 40°26' E 029°00'4 3.2
2014-Sep-20 23:22N 40°25' E 029°05'0 0.0
2014-Sep-20 22:28N 40°25' E 029°05'0 0.0
2014-Sep-20 21:21N 40°25' E 029°05'0 0.0
2014-Sep-20 20:27N 40°25' E 029°05'0 0.0
2014-Sep-20 19:14N 40°25' E 029°05'0 0.0
2014-Sep-20 18:32N 40°25' E 029°05'1 1.3
2014-Sep-20 17:33N 40°26' E 029°04'1513.9
2014-Sep-20 16:29N 40°26' E 028°44'  
2014-Sep-17 16:33N 37°24' E 024°17'3014.2
2014-Sep-17 14:28N 37°01' E 023°53'1414.7
2014-Sep-17 13:32N 36°50' E 023°43'43014.8
2014-Sep-16 08:21N 35°49' E 014°54'0 0.0
2014-Sep-16 07:24N 35°49' E 014°54'0 0.0
2014-Sep-16 06:29N 35°49' E 014°54'0 0.0
2014-Sep-16 05:14N 35°49' E 014°54'0 0.0
2014-Sep-16 04:31N 35°49' E 014°54'0 0.0
2014-Sep-16 03:31N 35°49' E 014°54'0 0.0
2014-Sep-16 02:31N 35°49' E 014°54'0 0.0
2014-Sep-16 01:33N 35°49' E 014°54'0 0.0
2014-Sep-15 23:17N 35°49' E 014°54'0 0.0
2014-Sep-15 22:32N 35°49' E 014°54'0 0.0
2014-Sep-15 21:31N 35°49' E 014°54'0 0.0
2014-Sep-15 20:19N 35°49' E 014°54'0 0.0
2014-Sep-15 19:31N 35°49' E 014°54'0 0.0
2014-Sep-15 18:33N 35°49' E 014°54'0 0.0
2014-Sep-15 17:27N 35°49' E 014°54'0 0.0
2014-Sep-15 16:32N 35°49' E 014°54'0 0.0
2014-Sep-15 15:32N 35°49' E 014°54'0 0.0
2014-Sep-15 14:31N 35°49' E 014°54'0 0.0
2014-Sep-15 13:31N 35°49' E 014°54'0 0.0
2014-Sep-15 12:31N 35°49' E 014°54'0 0.0
2014-Sep-15 11:33N 35°49' E 014°54'0 0.0
2014-Sep-15 10:33N 35°49' E 014°54'0 0.0
2014-Sep-15 09:32N 35°49' E 014°54'0 0.0
2014-Sep-15 08:32N 35°49' E 014°54'0 0.0
2014-Sep-15 07:04N 35°49' E 014°54'0 0.0
2014-Sep-15 05:30N 35°49' E 014°54'0 0.0
2014-Sep-15 04:30N 35°49' E 014°54'0 0.0
2014-Sep-15 03:33N 35°49' E 014°54'0 0.0
2014-Sep-15 02:32N 35°49' E 014°54'0 0.0
2014-Sep-15 01:32N 35°49' E 014°54'0 0.0
2014-Sep-15 00:31N 35°49' E 014°54'0 0.0
2014-Sep-14 17:22N 35°49' E 014°54'0 0.0
2014-Sep-14 16:31N 35°49' E 014°54'0 0.0
2014-Sep-14 15:33N 35°49' E 014°54'0 0.0
2014-Sep-14 14:33N 35°49' E 014°54'0 0.0
2014-Sep-14 13:08N 35°49' E 014°54'0 0.0
2014-Sep-14 12:23N 35°49' E 014°54'0 0.0
2014-Sep-14 11:32N 35°49' E 014°54'0 0.0
2014-Sep-14 10:31N 35°49' E 014°54'0 0.0
2014-Sep-14 09:31N 35°49' E 014°54'0 0.0
2014-Sep-14 08:33N 35°49' E 014°54'0 0.0
2014-Sep-14 07:33N 35°49' E 014°54'0 0.0
2014-Sep-14 06:32N 35°49' E 014°54'0 0.0
2014-Sep-14 05:32N 35°49' E 014°54'0 0.0
2014-Sep-14 04:32N 35°49' E 014°54'0 0.0
2014-Sep-14 03:31N 35°49' E 014°54'0 0.0
2014-Sep-14 02:31N 35°49' E 014°54'0 0.0
2014-Sep-14 01:33N 35°49' E 014°54'0 0.0
2014-Sep-13 21:23N 35°49' E 014°54'0 0.0
2014-Sep-13 20:31N 35°49' E 014°54'0 0.0
2014-Sep-13 19:28N 35°49' E 014°54'0 0.0
2014-Sep-13 18:27N 35°49' E 014°54'0 0.0
2014-Sep-13 17:27N 35°49' E 014°54'0 0.0
2014-Sep-13 13:19N 35°49' E 014°54'0 0.0
2014-Sep-13 12:28N 35°49' E 014°54'0 0.0
2014-Sep-13 11:33N 35°49' E 014°54'0 0.0
2014-Sep-13 06:31N 35°49' E 014°54'  
Track history (hours):
 
Tides and Currents Weather Stations Pressure Air Temp Water Temp Dewpoint Dewpoint Depression Visibility Wind Speed Wind Dir Waves Ship Positions

Alkin Kalkavan

Last reported at 2014-Sep-23 04:33 UTC. Time now 2014-Sep-24 02:29 UTC.
Position N 40°39' E 028°36'.

Length 148 m; draft 7.1 m.

Type: Ship (hazmat cat A). MMSI: 271000905.

Date/timePositionNaut miles runAvg speedWind from/ knotsBaromVisibWave heightAir tempDewpointWater temp
2014-Sep-23 04:33N 40°39' E 028°36'1414.2
2014-Sep-23 03:33N 40°41' E 028°54'1413.8
2014-Sep-23 02:33N 40°43' E 029°12'1312.5
2014-Sep-23 01:29N 40°45' E 029°30'9 9.8
2014-Sep-23 00:33N 40°46' E 029°42'1 0.1
2014-Sep-22 08:33N 40°46' E 029°41'1413.8
2014-Sep-22 07:32N 40°44' E 029°23'1212.4
2014-Sep-22 06:33N 40°48' E 029°07'4 3.6
2014-Sep-22 05:32N 40°49' E 029°03'1 0.6
2014-Sep-22 04:33N 40°49' E 029°04'1 0.8
2014-Sep-22 03:31N 40°48' E 029°04'1 0.6
2014-Sep-22 02:33N 40°48' E 029°04'1 0.7
2014-Sep-22 01:33N 40°47' E 029°04'1 0.6
2014-Sep-22 00:33N 40°46' E 029°04'1 0.6
2014-Sep-21 23:33N 40°46' E 029°04'0 0.4
2014-Sep-21 22:33N 40°45' E 029°03'9 9.5
2014-Sep-21 21:33N 40°47' E 028°51'1310.6
2014-Sep-21 20:20N 40°58' E 028°41'0 0.0
2014-Sep-21 15:28N 40°58' E 028°41'0 0.0
2014-Sep-21 13:21N 40°58' E 028°41'0 0.0
2014-Sep-21 12:21N 40°58' E 028°41'0 0.0
2014-Sep-21 11:33N 40°58' E 028°41'2 0.3
2014-Sep-21 03:24N 40°56' E 028°40'2412.8
2014-Sep-21 01:31N 40°32' E 028°45'1313.6
2014-Sep-21 00:33N 40°26' E 029°00'4 3.2
2014-Sep-20 23:22N 40°25' E 029°05'0 0.0
2014-Sep-20 22:28N 40°25' E 029°05'0 0.0
2014-Sep-20 21:21N 40°25' E 029°05'0 0.0
2014-Sep-20 20:27N 40°25' E 029°05'0 0.0
2014-Sep-20 19:14N 40°25' E 029°05'0 0.0
2014-Sep-20 18:32N 40°25' E 029°05'1 1.3
2014-Sep-20 17:33N 40°26' E 029°04'1513.9
2014-Sep-20 16:29N 40°26' E 028°44'  
2014-Sep-17 16:33N 37°24' E 024°17'3014.2
2014-Sep-17 14:28N 37°01' E 023°53'1414.7
2014-Sep-17 13:32N 36°50' E 023°43'43014.8
2014-Sep-16 08:21N 35°49' E 014°54'0 0.0
2014-Sep-16 07:24N 35°49' E 014°54'0 0.0
2014-Sep-16 06:29N 35°49' E 014°54'0 0.0
2014-Sep-16 05:14N 35°49' E 014°54'0 0.0
2014-Sep-16 04:31N 35°49' E 014°54'0 0.0
2014-Sep-16 03:31N 35°49' E 014°54'0 0.0
2014-Sep-16 02:31N 35°49' E 014°54'0 0.0
2014-Sep-16 01:33N 35°49' E 014°54'0 0.0
2014-Sep-15 23:17N 35°49' E 014°54'0 0.0
2014-Sep-15 22:32N 35°49' E 014°54'0 0.0
2014-Sep-15 21:31N 35°49' E 014°54'0 0.0
2014-Sep-15 20:19N 35°49' E 014°54'0 0.0
2014-Sep-15 19:31N 35°49' E 014°54'0 0.0
2014-Sep-15 18:33N 35°49' E 014°54'0 0.0
2014-Sep-15 17:27N 35°49' E 014°54'0 0.0
2014-Sep-15 16:32N 35°49' E 014°54'0 0.0
2014-Sep-15 15:32N 35°49' E 014°54'0 0.0
2014-Sep-15 14:31N 35°49' E 014°54'0 0.0
2014-Sep-15 13:31N 35°49' E 014°54'0 0.0
2014-Sep-15 12:31N 35°49' E 014°54'0 0.0
2014-Sep-15 11:33N 35°49' E 014°54'0 0.0
2014-Sep-15 10:33N 35°49' E 014°54'0 0.0
2014-Sep-15 09:32N 35°49' E 014°54'0 0.0
2014-Sep-15 08:32N 35°49' E 014°54'0 0.0
2014-Sep-15 07:04N 35°49' E 014°54'0 0.0
2014-Sep-15 05:30N 35°49' E 014°54'0 0.0
2014-Sep-15 04:30N 35°49' E 014°54'0 0.0
2014-Sep-15 03:33N 35°49' E 014°54'0 0.0
2014-Sep-15 02:32N 35°49' E 014°54'0 0.0
2014-Sep-15 01:32N 35°49' E 014°54'0 0.0
2014-Sep-15 00:31N 35°49' E 014°54'0 0.0
2014-Sep-14 17:22N 35°49' E 014°54'0 0.0
2014-Sep-14 16:31N 35°49' E 014°54'0 0.0
2014-Sep-14 15:33N 35°49' E 014°54'0 0.0
2014-Sep-14 14:33N 35°49' E 014°54'0 0.0
2014-Sep-14 13:08N 35°49' E 014°54'0 0.0
2014-Sep-14 12:23N 35°49' E 014°54'0 0.0
2014-Sep-14 11:32N 35°49' E 014°54'0 0.0
2014-Sep-14 10:31N 35°49' E 014°54'0 0.0
2014-Sep-14 09:31N 35°49' E 014°54'0 0.0
2014-Sep-14 08:33N 35°49' E 014°54'0 0.0
2014-Sep-14 07:33N 35°49' E 014°54'0 0.0
2014-Sep-14 06:32N 35°49' E 014°54'0 0.0
2014-Sep-14 05:32N 35°49' E 014°54'0 0.0
2014-Sep-14 04:32N 35°49' E 014°54'0 0.0
2014-Sep-14 03:31N 35°49' E 014°54'0 0.0
2014-Sep-14 02:31N 35°49' E 014°54'0 0.0
2014-Sep-14 01:33N 35°49' E 014°54'0 0.0
2014-Sep-13 21:23N 35°49' E 014°54'0 0.0
2014-Sep-13 20:31N 35°49' E 014°54'0 0.0
2014-Sep-13 19:28N 35°49' E 014°54'0 0.0
2014-Sep-13 18:27N 35°49' E 014°54'0 0.0
2014-Sep-13 17:27N 35°49' E 014°54'0 0.0
2014-Sep-13 13:19N 35°49' E 014°54'0 0.0
2014-Sep-13 12:28N 35°49' E 014°54'0 0.0
2014-Sep-13 11:33N 35°49' E 014°54'0 0.0
2014-Sep-13 06:31N 35°49' E 014°54'  

Dump ship's entire track history